createdAt,value
2022-08-17T00:00:53.161Z,93398.78
2022-08-17T00:01:54.671Z,93394.81
2022-08-17T00:03:03.402Z,93400.69
2022-08-17T00:04:09.286Z,93399.63
2022-08-17T00:05:15.540Z,93391.31
2022-08-17T00:06:19.959Z,93396.44
2022-08-17T00:07:21.474Z,93385.97
2022-08-17T00:08:25.267Z,93388.63
2022-08-17T00:09:26.822Z,93393.47
2022-08-17T00:10:28.415Z,93390.50
2022-08-17T00:11:37.956Z,93386.75
2022-08-17T00:12:43.983Z,93384.31
2022-08-17T00:13:48.651Z,93390.22
2022-08-17T00:14:50.156Z,93381.66
2022-08-17T00:15:54.302Z,93384.63
2022-08-17T00:16:57.240Z,93386.50
2022-08-17T00:17:59.190Z,93385.69
2022-08-17T00:19:08.498Z,93374.94
2022-08-17T00:20:11.172Z,93373.09
2022-08-17T00:21:15.655Z,93377.91
2022-08-17T00:22:34.465Z,93371.50
2022-08-17T00:23:39.266Z,93374.50
2022-08-17T00:24:46.063Z,93364.81
2022-08-17T00:25:48.108Z,93366.19
2022-08-17T00:26:51.081Z,93373.09
2022-08-17T00:27:52.566Z,93367.78
2022-08-17T00:28:56.422Z,93369.13
2022-08-17T00:29:57.898Z,93369.91
2022-08-17T00:30:59.840Z,93364.31
2022-08-17T00:32:01.728Z,93364.81
2022-08-17T00:33:27.298Z,93365.38
2022-08-17T00:34:29.011Z,93366.44
2022-08-17T00:35:33.659Z,93365.38
2022-08-17T00:36:35.165Z,93366.16
2022-08-17T00:37:36.711Z,93366.44
2022-08-17T00:38:38.489Z,93366.69
2022-08-17T00:39:40.073Z,93366.66
2022-08-17T00:40:44.947Z,93364.25
2022-08-17T00:41:46.619Z,93368.28
2022-08-17T00:42:49.751Z,93366.06
2022-08-17T00:43:54.850Z,93360.72
2022-08-17T00:44:56.558Z,93365.25
2022-08-17T00:45:59.190Z,93360.69
2022-08-17T00:47:00.665Z,93362.47
2022-08-17T00:48:02.409Z,93362.00
2022-08-17T00:49:04.506Z,93363.88
2022-08-17T00:50:10.435Z,93365.53
2022-08-17T00:51:29.522Z,93370.28
2022-08-17T00:52:37.060Z,93362.03
2022-08-17T00:53:42.562Z,93360.69
2022-08-17T00:54:48.941Z,93363.09
2022-08-17T00:55:50.742Z,93365.72
2022-08-17T00:56:55.031Z,93364.38
2022-08-17T00:58:00.101Z,93365.03
2022-08-17T00:59:05.082Z,93360.75
2022-08-17T01:00:11.905Z,93361.47
2022-08-17T01:01:21.474Z,93367.16
2022-08-17T01:02:24.359Z,93358.50
2022-08-17T01:03:26.238Z,93358.41
2022-08-17T01:04:29.793Z,93352.53
2022-08-17T01:05:34.256Z,93354.44
2022-08-17T01:06:36.089Z,93352.69
2022-08-17T01:07:38.113Z,93351.94
2022-08-17T01:08:40.218Z,93352.69
2022-08-17T01:09:43.322Z,93354.41
2022-08-17T01:10:59.865Z,93354.34
2022-08-17T01:12:03.876Z,93351.31
2022-08-17T01:13:06.969Z,93352.19
2022-08-17T01:14:08.772Z,93348.03
2022-08-17T01:15:11.325Z,93349.50
2022-08-17T01:16:17.635Z,93348.53
2022-08-17T01:17:19.123Z,93343.91
2022-08-17T01:18:20.971Z,93348.88
2022-08-17T01:19:25.777Z,93349.38
2022-08-17T01:20:27.403Z,93356.66
2022-08-17T01:21:38.097Z,93351.56
2022-08-17T01:22:40.971Z,93351.22
2022-08-17T01:23:42.460Z,93352.28
2022-08-17T01:24:46.856Z,93349.84
2022-08-17T01:25:50.286Z,93342.19
2022-08-17T01:26:51.777Z,93341.97
2022-08-17T01:27:53.492Z,93342.22
2022-08-17T01:28:56.008Z,93347.13
2022-08-17T01:30:01.568Z,93339.09
2022-08-17T01:31:06.059Z,93342.06
2022-08-17T01:32:08.898Z,93337.91
2022-08-17T01:33:10.844Z,93335.22
2022-08-17T01:34:14.534Z,93345.59
2022-08-17T01:35:16.051Z,93339.94
2022-08-17T01:36:18.060Z,93335.84
2022-08-17T01:37:20.904Z,93333.06
2022-08-17T01:38:27.053Z,93330.13
2022-08-17T01:39:31.864Z,93330.84
2022-08-17T01:40:36.311Z,93328.09
2022-08-17T01:41:39.917Z,93333.34
2022-08-17T01:42:44.326Z,93332.94
2022-08-17T01:43:49.656Z,93335.94
2022-08-17T01:44:56.123Z,93338.09
2022-08-17T01:46:02.697Z,93339.25
2022-08-17T01:47:05.822Z,93349.69
2022-08-17T01:48:07.316Z,93343.94
2022-08-17T01:49:11.205Z,93348.53
2022-08-17T01:50:16.745Z,93343.09
2022-08-17T01:51:18.978Z,93354.25
2022-08-17T01:52:20.888Z,93351.13
2022-08-17T01:53:27.425Z,93344.84
2022-08-17T01:54:29.186Z,93343.97
2022-08-17T01:55:35.923Z,93341.75
2022-08-17T01:56:42.233Z,93337.16
2022-08-17T01:57:43.702Z,93338.81
2022-08-17T01:58:45.273Z,93339.94
2022-08-17T01:59:46.867Z,93337.59
2022-08-17T02:00:59.853Z,93332.97
2022-08-17T02:02:01.927Z,93331.59
2022-08-17T02:03:04.135Z,93335.34
2022-08-17T02:04:06.585Z,93339.06
2022-08-17T02:05:08.704Z,93348.94
2022-08-17T02:06:27.875Z,93331.06
2022-08-17T02:07:29.872Z,93336.31
2022-08-17T02:08:38.896Z,93341.06
2022-08-17T02:09:42.138Z,93335.34
2022-08-17T02:10:46.843Z,93338.50
2022-08-17T02:11:48.421Z,93340.44
2022-08-17T02:12:52.234Z,93338.84
2022-08-17T02:14:02.355Z,93333.91
2022-08-17T02:15:06.293Z,93336.56
2022-08-17T02:16:07.843Z,93328.84
2022-08-17T02:17:09.375Z,93329.84
2022-08-17T02:18:11.943Z,93331.97
2022-08-17T02:19:15.376Z,93332.03
2022-08-17T02:20:16.893Z,93334.78
2022-08-17T02:21:40.047Z,93328.75
2022-08-17T02:22:45.699Z,93326.25
2022-08-17T02:23:49.394Z,93330.84
2022-08-17T02:25:01.252Z,93324.28
2022-08-17T02:26:04.325Z,93321.31
2022-08-17T02:27:06.257Z,93324.88
2022-08-17T02:28:07.732Z,93323.50
2022-08-17T02:29:09.263Z,93321.63
2022-08-17T02:30:59.954Z,93325.94
2022-08-17T02:31:35.614Z,93326.06
2022-08-17T02:32:37.508Z,93316.13
2022-08-17T02:33:41.804Z,93318.72
2022-08-17T02:34:44.801Z,93325.47
2022-08-17T02:35:46.454Z,93319.97
2022-08-17T02:36:47.909Z,93325.16
2022-08-17T02:37:51.865Z,93323.06
2022-08-17T02:38:58.652Z,93321.31
2022-08-17T02:40:00.528Z,93323.31
2022-08-17T02:41:02.242Z,93323.66
2022-08-17T02:42:04.475Z,93323.16
2022-08-17T02:43:06.661Z,93330.25
2022-08-17T02:44:08.174Z,93328.28
2022-08-17T02:45:13.558Z,93332.13
2022-08-17T02:46:15.105Z,93326.78
2022-08-17T02:47:16.591Z,93326.50
2022-08-17T02:48:30.643Z,93326.31
2022-08-17T02:49:33.396Z,93322.78
2022-08-17T02:50:34.914Z,93326.88
2022-08-17T02:51:36.443Z,93321.06
2022-08-17T02:52:43.744Z,93319.44
2022-08-17T02:53:45.854Z,93323.97
2022-08-17T02:54:48.711Z,93325.03
2022-08-17T02:55:50.192Z,93327.66
2022-08-17T02:56:53.261Z,93329.56
2022-08-17T02:57:55.000Z,93328.97
2022-08-17T02:58:56.524Z,93327.59
2022-08-17T02:59:58.015Z,93329.19
2022-08-17T03:00:59.514Z,93332.03
2022-08-17T03:02:02.772Z,93337.19
2022-08-17T03:03:05.840Z,93343.41
2022-08-17T03:04:07.407Z,93332.53
2022-08-17T03:05:11.311Z,93338.91
2022-08-17T03:06:12.811Z,93335.44
2022-08-17T03:07:14.371Z,93337.94
2022-08-17T03:08:16.363Z,93340.69
2022-08-17T03:09:17.843Z,93344.00
2022-08-17T03:10:21.319Z,93342.94
2022-08-17T03:11:22.881Z,93340.06
2022-08-17T03:12:24.348Z,93342.06
2022-08-17T03:13:26.054Z,93339.16
2022-08-17T03:14:27.564Z,93349.75
2022-08-17T03:15:31.741Z,93348.69
2022-08-17T03:16:33.254Z,93345.31
2022-08-17T03:17:36.232Z,93347.88
2022-08-17T03:18:37.789Z,93347.22
2022-08-17T03:19:42.978Z,93347.78
2022-08-17T03:20:44.875Z,93344.16
2022-08-17T03:21:46.387Z,93350.19
2022-08-17T03:23:01.882Z,93340.81
2022-08-17T03:24:08.906Z,93342.03
2022-08-17T03:25:13.275Z,93335.84
2022-08-17T03:26:22.339Z,93341.66
2022-08-17T03:27:23.807Z,93341.31
2022-08-17T03:28:25.930Z,93348.69
2022-08-17T03:29:27.427Z,93348.44
2022-08-17T03:30:29.573Z,93344.31
2022-08-17T03:31:31.094Z,93353.53
2022-08-17T03:32:37.875Z,93358.94
2022-08-17T03:33:39.457Z,93348.09
2022-08-17T03:34:41.042Z,93348.91
2022-08-17T03:35:42.602Z,93351.09
2022-08-17T03:36:44.420Z,93351.91
2022-08-17T03:37:46.394Z,93352.94
2022-08-17T03:38:47.929Z,93356.03
2022-08-17T03:39:52.789Z,93353.22
2022-08-17T03:40:56.673Z,93344.41
2022-08-17T03:42:06.810Z,93346.50
2022-08-17T03:43:09.956Z,93346.66
2022-08-17T03:44:11.419Z,93348.75
2022-08-17T03:45:16.655Z,93352.31
2022-08-17T03:46:27.915Z,93357.00
2022-08-17T03:47:30.646Z,93347.97
2022-08-17T03:48:32.595Z,93346.78
2022-08-17T03:49:34.104Z,93348.03
2022-08-17T03:50:35.614Z,93339.63
2022-08-17T03:51:37.120Z,93350.78
2022-08-17T03:52:38.608Z,93347.63
2022-08-17T03:53:48.286Z,93348.28
2022-08-17T03:54:49.795Z,93350.94
2022-08-17T03:55:51.452Z,93347.13
2022-08-17T03:56:59.837Z,93348.50
2022-08-17T03:58:02.643Z,93349.09
2022-08-17T03:59:04.151Z,93349.56
2022-08-17T04:00:07.320Z,93352.47
2022-08-17T04:01:09.576Z,93354.34
2022-08-17T04:02:15.483Z,93357.00
2022-08-17T04:03:17.770Z,93358.63
2022-08-17T04:04:20.979Z,93361.84
2022-08-17T04:05:29.346Z,93350.38
2022-08-17T04:06:30.812Z,93352.34
2022-08-17T04:07:32.342Z,93352.09
2022-08-17T04:08:33.917Z,93354.78
2022-08-17T04:09:35.868Z,93352.91
2022-08-17T04:10:38.563Z,93354.50
2022-08-17T04:11:46.525Z,93356.47
2022-08-17T04:12:51.316Z,93356.22
2022-08-17T04:13:54.321Z,93360.50
2022-08-17T04:14:55.971Z,93355.50
2022-08-17T04:15:57.437Z,93360.56
2022-08-17T04:16:58.895Z,93361.84
2022-08-17T04:18:00.535Z,93358.47
2022-08-17T04:19:02.849Z,93356.03
2022-08-17T04:20:05.116Z,93359.28
2022-08-17T04:21:08.771Z,93358.06
2022-08-17T04:22:10.263Z,93353.22
2022-08-17T04:23:31.736Z,93355.06
2022-08-17T04:24:34.305Z,93363.63
2022-08-17T04:25:39.256Z,93355.31
2022-08-17T04:26:53.631Z,93360.66
2022-08-17T04:27:56.707Z,93362.56
2022-08-17T04:28:59.854Z,93362.75
2022-08-17T04:30:01.910Z,93361.16
2022-08-17T04:31:03.624Z,93353.63
2022-08-17T04:32:05.905Z,93347.72
2022-08-17T04:33:09.832Z,93351.78
2022-08-17T04:34:11.524Z,93357.34
2022-08-17T04:35:17.930Z,93360.41
2022-08-17T04:36:19.569Z,93356.75
2022-08-17T04:37:21.058Z,93355.41
2022-08-17T04:38:25.100Z,93357.56
2022-08-17T04:39:26.638Z,93359.91
2022-08-17T04:40:28.499Z,93355.91
2022-08-17T04:41:30.315Z,93361.78
2022-08-17T04:42:31.777Z,93355.72
2022-08-17T04:43:35.772Z,93354.38
2022-08-17T04:44:38.610Z,93354.16
2022-08-17T04:45:54.984Z,93358.63
2022-08-17T04:46:57.963Z,93359.66
2022-08-17T04:48:00.961Z,93370.75
2022-08-17T04:49:05.906Z,93369.69
2022-08-17T04:50:08.444Z,93368.41
2022-08-17T04:51:12.401Z,93367.00
2022-08-17T04:52:29.675Z,93366.22
2022-08-17T04:53:35.761Z,93363.06
2022-08-17T04:54:37.231Z,93367.66
2022-08-17T04:55:39.506Z,93371.13
2022-08-17T04:56:41.287Z,93368.81
2022-08-17T04:57:45.091Z,93367.50
2022-08-17T04:58:52.349Z,93365.19
2022-08-17T04:59:55.170Z,93365.75
2022-08-17T05:00:56.724Z,93366.66
2022-08-17T05:01:58.275Z,93366.69
2022-08-17T05:02:59.860Z,93364.63
2022-08-17T05:04:21.127Z,93372.38
2022-08-17T05:05:29.662Z,93366.00
2022-08-17T05:06:32.927Z,93367.75
2022-08-17T05:07:34.854Z,93370.69
2022-08-17T05:08:38.613Z,93371.41
2022-08-17T05:09:40.072Z,93375.63
2022-08-17T05:10:45.189Z,93376.09
2022-08-17T05:11:47.346Z,93382.69
2022-08-17T05:12:57.273Z,93371.47
2022-08-17T05:13:59.070Z,93376.22
2022-08-17T05:15:01.902Z,93378.09
2022-08-17T05:16:04.203Z,93375.97
2022-08-17T05:17:09.352Z,93375.28
2022-08-17T05:18:13.139Z,93382.00
2022-08-17T05:19:14.593Z,93383.94
2022-08-17T05:20:16.182Z,93377.53
2022-08-17T05:21:18.995Z,93379.31
2022-08-17T05:22:20.549Z,93383.75
2022-08-17T05:23:24.573Z,93386.31
2022-08-17T05:24:40.753Z,93379.03
2022-08-17T05:25:47.962Z,93387.59
2022-08-17T05:26:49.489Z,93385.91
2022-08-17T05:27:51.690Z,93382.41
2022-08-17T05:28:53.830Z,93382.84
2022-08-17T05:29:55.713Z,93386.31
2022-08-17T05:31:01.239Z,93380.66
2022-08-17T05:32:37.446Z,93390.84
2022-08-17T05:33:35.120Z,93386.88
2022-08-17T05:34:36.580Z,93385.69
2022-08-17T05:35:43.016Z,93391.16
2022-08-17T05:36:44.661Z,93393.97
2022-08-17T05:37:46.281Z,93397.19
2022-08-17T05:38:47.750Z,93393.63
2022-08-17T05:39:49.278Z,93397.97
2022-08-17T05:40:51.665Z,93406.16
2022-08-17T05:41:53.157Z,93398.78
2022-08-17T05:43:04.973Z,93407.13
2022-08-17T05:44:06.468Z,93404.13
2022-08-17T05:45:09.244Z,93411.19
2022-08-17T05:46:20.148Z,93420.06
2022-08-17T05:47:24.114Z,93421.72
2022-08-17T05:48:36.794Z,93418.31
2022-08-17T05:49:41.430Z,93422.44
2022-08-17T05:50:50.916Z,93418.28
2022-08-17T05:52:10.186Z,93413.84
2022-08-17T05:53:21.587Z,93412.53
2022-08-17T05:54:38.792Z,93408.63
2022-08-17T05:55:48.870Z,93415.38
2022-08-17T05:57:13.638Z,93410.81
2022-08-17T05:58:23.805Z,93404.69
2022-08-17T05:59:34.977Z,93405.56
2022-08-17T06:00:42.989Z,93413.13
2022-08-17T06:01:55.976Z,93399.75
2022-08-17T06:03:32.996Z,93411.00
2022-08-17T06:05:00.414Z,93410.00
2022-08-17T06:06:17.285Z,93415.41
2022-08-17T06:07:36.306Z,93409.44
2022-08-17T06:08:51.633Z,93411.59
2022-08-17T06:10:00.206Z,93407.81
2022-08-17T06:11:10.282Z,93409.16
2022-08-17T06:12:36.261Z,93412.38
2022-08-17T06:13:52.202Z,93423.19
2022-08-17T06:15:04.074Z,93420.25
2022-08-17T06:16:33.859Z,93432.59
2022-08-17T06:17:36.193Z,93435.28
2022-08-17T06:18:45.402Z,93429.91
2022-08-17T06:19:52.543Z,93435.03
2022-08-17T06:20:58.360Z,93431.81
2022-08-17T06:22:00.269Z,93435.03
2022-08-17T06:23:08.556Z,93439.31
2022-08-17T06:24:27.471Z,93440.94
2022-08-17T06:25:34.584Z,93444.69
2022-08-17T06:26:43.004Z,93446.84
2022-08-17T06:27:53.414Z,93449.78
2022-08-17T06:29:00.099Z,93446.31
2022-08-17T06:30:07.460Z,93449.28
2022-08-17T06:31:23.542Z,93439.34
2022-08-17T06:32:25.429Z,93444.44
2022-08-17T06:33:31.492Z,93442.84
2022-08-17T06:34:32.984Z,93448.22
2022-08-17T06:35:41.457Z,93452.22
2022-08-17T06:36:56.666Z,93457.56
2022-08-17T06:38:09.137Z,93457.00
2022-08-17T06:39:35.057Z,93455.28
2022-08-17T06:40:49.474Z,93458.25
2022-08-17T06:42:01.166Z,93461.47
2022-08-17T06:43:15.523Z,93461.56
2022-08-17T06:44:43.237Z,93461.66
2022-08-17T06:45:45.550Z,93463.56
2022-08-17T06:46:50.884Z,93466.66
2022-08-17T06:47:59.261Z,93461.75
2022-08-17T06:49:14.160Z,93458.91
2022-08-17T06:50:19.833Z,93454.53
2022-08-17T06:51:24.969Z,93454.44
2022-08-17T06:52:45.471Z,93451.38
2022-08-17T06:53:59.812Z,93455.69
2022-08-17T06:55:05.318Z,93446.28
2022-08-17T06:56:09.470Z,93447.13
2022-08-17T06:57:17.976Z,93446.00
2022-08-17T06:58:23.453Z,93439.50
2022-08-17T06:59:55.257Z,93434.44
2022-08-17T07:01:03.540Z,93432.91
2022-08-17T07:02:08.479Z,93431.56
2022-08-17T07:03:15.430Z,93426.19
2022-08-17T07:04:23.029Z,93428.63
2022-08-17T07:05:28.050Z,93431.03
2022-08-17T07:06:37.714Z,93421.56
2022-08-17T07:07:47.569Z,93424.66
2022-08-17T07:08:55.746Z,93423.50
2022-08-17T07:10:00.904Z,93419.50
2022-08-17T07:11:06.748Z,93424.06
2022-08-17T07:12:14.835Z,93422.66
2022-08-17T07:13:33.928Z,93422.88
2022-08-17T07:14:39.450Z,93419.88
2022-08-17T07:15:42.831Z,93426.28
2022-08-17T07:16:48.665Z,93422.09
2022-08-17T07:17:50.548Z,93425.41
2022-08-17T07:18:55.589Z,93421.91
2022-08-17T07:20:04.882Z,93424.41
2022-08-17T07:21:17.523Z,93423.56
2022-08-17T07:22:25.449Z,93430.69
2022-08-17T07:23:52.278Z,93426.03
2022-08-17T07:24:55.915Z,93418.59
2022-08-17T07:26:04.205Z,93419.16
2022-08-17T07:27:09.946Z,93420.56
2022-08-17T07:28:11.419Z,93416.38
2022-08-17T07:29:17.468Z,93417.91
2022-08-17T07:30:24.569Z,93421.75
2022-08-17T07:31:28.892Z,93423.09
2022-08-17T07:32:34.146Z,93418.75
2022-08-17T07:33:35.910Z,93427.28
2022-08-17T07:35:10.804Z,93434.28
2022-08-17T07:36:29.172Z,93436.19
2022-08-17T07:37:31.418Z,93430.25
2022-08-17T07:38:34.587Z,93422.69
2022-08-17T07:39:36.156Z,93424.31
2022-08-17T07:41:01.501Z,93429.84
2022-08-17T07:42:04.997Z,93428.38
2022-08-17T07:43:21.842Z,93429.22
2022-08-17T07:44:24.776Z,93419.91
2022-08-17T07:45:26.370Z,93419.41
2022-08-17T07:46:33.109Z,93419.91
2022-08-17T07:47:34.598Z,93425.06
2022-08-17T07:48:37.904Z,93424.50
2022-08-17T07:49:42.004Z,93426.84
2022-08-17T07:50:49.307Z,93425.16
2022-08-17T07:51:59.976Z,93424.22
2022-08-17T07:53:16.929Z,93426.47
2022-08-17T07:54:21.999Z,93442.69
2022-08-17T07:55:28.991Z,93425.97
2022-08-17T07:56:34.929Z,93433.00
2022-08-17T07:57:36.505Z,93440.16
2022-08-17T07:58:37.961Z,93433.00
2022-08-17T07:59:43.206Z,93432.47
2022-08-17T08:00:45.752Z,93435.47
2022-08-17T08:01:58.477Z,93438.41
2022-08-17T08:03:12.260Z,93433.94
2022-08-17T08:04:49.988Z,93430.84
2022-08-17T08:05:51.573Z,93440.19
2022-08-17T08:06:56.999Z,93435.50
2022-08-17T08:08:01.886Z,93446.44
2022-08-17T08:09:03.581Z,93434.41
2022-08-17T08:10:09.654Z,93437.00
2022-08-17T08:11:13.818Z,93436.97
2022-08-17T08:12:33.964Z,93434.09
2022-08-17T08:13:37.567Z,93442.81
2022-08-17T08:14:39.108Z,93441.41
2022-08-17T08:15:45.141Z,93443.44
2022-08-17T08:16:58.358Z,93446.34
2022-08-17T08:18:02.355Z,93448.03
2022-08-17T08:19:04.942Z,93446.88
2022-08-17T08:20:47.643Z,93444.94
2022-08-17T08:21:48.908Z,93448.44
2022-08-17T08:22:59.133Z,93453.97
2022-08-17T08:24:19.282Z,93445.88
2022-08-17T08:25:30.187Z,93454.53
2022-08-17T08:26:37.195Z,93449.16
2022-08-17T08:27:49.491Z,93453.94
2022-08-17T08:28:59.321Z,93452.13
2022-08-17T08:30:06.713Z,93446.44
2022-08-17T08:31:18.620Z,93442.81
2022-08-17T08:32:42.058Z,93444.41
2022-08-17T08:33:55.177Z,93447.38
2022-08-17T08:35:04.060Z,93441.44
2022-08-17T08:36:56.634Z,93440.16
2022-08-17T08:37:47.334Z,93437.38
2022-08-17T08:38:55.766Z,93442.41
2022-08-17T08:40:08.149Z,93436.44
2022-08-17T08:41:36.099Z,93444.59
2022-08-17T08:42:44.613Z,93441.53
2022-08-17T08:43:55.084Z,93445.09
2022-08-17T08:45:05.523Z,93444.75
2022-08-17T08:46:19.806Z,93443.97
2022-08-17T08:47:35.539Z,93439.66
2022-08-17T08:49:14.536Z,93447.47
2022-08-17T08:50:37.167Z,93449.66
2022-08-17T08:51:51.759Z,93448.94
2022-08-17T08:53:12.455Z,93456.09
2022-08-17T08:54:26.912Z,93439.56
2022-08-17T08:55:42.155Z,93441.25
2022-08-17T08:57:19.480Z,93434.84
2022-08-17T08:58:31.617Z,93429.78
2022-08-17T08:59:57.846Z,93429.72
2022-08-17T09:01:03.633Z,93430.25
2022-08-17T09:02:23.825Z,93432.44
2022-08-17T09:03:53.168Z,93433.59
2022-08-17T09:05:15.251Z,93427.41
2022-08-17T09:06:37.866Z,93425.28
2022-08-17T09:07:48.551Z,93422.69
2022-08-17T09:09:03.570Z,93420.41
2022-08-17T09:10:11.442Z,93430.09
2022-08-17T09:11:19.434Z,93427.50
2022-08-17T09:12:30.657Z,93430.56
2022-08-17T09:13:38.786Z,93447.03
2022-08-17T09:14:50.003Z,93445.59
2022-08-17T09:15:54.705Z,93446.44
2022-08-17T09:17:03.038Z,93449.44
2022-08-17T09:19:00.458Z,93459.22
2022-08-17T09:19:37.924Z,93451.63
2022-08-17T09:20:50.230Z,93455.41
2022-08-17T09:21:54.811Z,93467.88
2022-08-17T09:23:02.302Z,93468.56
2022-08-17T09:24:11.182Z,93471.88
2022-08-17T09:25:17.013Z,93471.09
2022-08-17T09:26:24.054Z,93471.59
2022-08-17T09:27:32.857Z,93484.75
2022-08-17T09:28:37.026Z,93489.50
2022-08-17T09:29:43.346Z,93486.53
2022-08-17T09:30:47.200Z,93485.28
2022-08-17T09:31:54.214Z,93493.25
2022-08-17T09:32:59.715Z,93484.81
2022-08-17T09:34:05.245Z,93492.84
2022-08-17T09:35:15.292Z,93488.06
2022-08-17T09:36:22.903Z,93491.69
2022-08-17T09:37:32.317Z,93494.03
2022-08-17T09:38:45.440Z,93497.91
2022-08-17T09:39:58.239Z,93496.72
2022-08-17T09:41:09.313Z,93492.03
2022-08-17T09:42:17.509Z,93495.41
2022-08-17T09:43:31.602Z,93493.97
2022-08-17T09:44:38.749Z,93493.66
2022-08-17T09:45:45.067Z,93492.78
2022-08-17T09:46:50.610Z,93493.31
2022-08-17T09:47:57.812Z,93495.66
2022-08-17T09:49:06.526Z,93500.59
2022-08-17T09:50:13.416Z,93498.59
2022-08-17T09:51:21.301Z,93509.97
2022-08-17T09:52:26.205Z,93499.88
2022-08-17T09:53:31.928Z,93503.00
2022-08-17T09:54:40.285Z,93504.56
2022-08-17T09:56:03.335Z,93502.09
2022-08-17T09:57:31.780Z,93498.50
2022-08-17T09:58:46.960Z,93502.78
2022-08-17T10:00:02.281Z,93502.94
2022-08-17T10:01:16.788Z,93510.72
2022-08-17T10:02:39.566Z,93513.56
2022-08-17T10:04:09.816Z,93513.25
2022-08-17T10:05:16.901Z,93501.38
2022-08-17T10:06:23.765Z,93506.91
2022-08-17T10:07:33.894Z,93498.81
2022-08-17T10:08:41.973Z,93494.47
2022-08-17T10:09:55.948Z,93499.81
2022-08-17T10:11:11.375Z,93502.56
2022-08-17T10:12:28.296Z,93492.31
2022-08-17T10:13:40.205Z,93496.59
2022-08-17T10:15:14.738Z,93495.75
2022-08-17T10:16:25.488Z,93500.25
2022-08-17T10:17:35.041Z,93497.66
2022-08-17T10:18:48.292Z,93504.88
2022-08-17T10:19:58.211Z,93500.44
2022-08-17T10:21:02.906Z,93505.25
2022-08-17T10:22:14.546Z,93500.00
2022-08-17T10:23:22.221Z,93504.47
2022-08-17T10:24:29.249Z,93507.28
2022-08-17T10:25:49.017Z,93504.09
2022-08-17T10:26:58.502Z,93500.06
2022-08-17T10:28:06.640Z,93491.97
2022-08-17T10:29:13.366Z,93503.13
2022-08-17T10:30:17.621Z,93510.47
2022-08-17T10:31:40.060Z,93497.13
2022-08-17T10:32:48.340Z,93506.75
2022-08-17T10:34:07.220Z,93500.75
2022-08-17T10:35:29.016Z,93492.56
2022-08-17T10:36:42.467Z,93498.19
2022-08-17T10:38:08.397Z,93501.84
2022-08-17T10:39:22.159Z,93502.06
2022-08-17T10:40:33.159Z,93504.06
2022-08-17T10:41:44.560Z,93506.66
2022-08-17T10:42:51.480Z,93509.69
2022-08-17T10:44:40.456Z,93511.03
2022-08-17T10:45:30.792Z,93494.69
2022-08-17T10:46:46.389Z,93505.03
2022-08-17T10:48:04.828Z,93512.28
2022-08-17T10:49:28.767Z,93520.00
2022-08-17T10:50:47.773Z,93516.69
2022-08-17T10:51:51.310Z,93513.72
2022-08-17T10:52:52.866Z,93507.09
2022-08-17T10:53:57.270Z,93511.78
2022-08-17T10:55:18.652Z,93498.09
2022-08-17T10:56:39.629Z,93512.34
2022-08-17T10:57:43.418Z,93522.19
2022-08-17T10:58:49.262Z,93527.13
2022-08-17T10:59:53.198Z,93514.66
2022-08-17T11:00:59.154Z,93512.78
2022-08-17T11:02:12.817Z,93509.50
2022-08-17T11:03:18.572Z,93512.06
2022-08-17T11:04:27.968Z,93509.28
2022-08-17T11:05:51.185Z,93497.06
2022-08-17T11:07:07.231Z,93509.34
2022-08-17T11:08:50.466Z,93506.06
2022-08-17T11:10:13.617Z,93513.56
2022-08-17T11:11:51.348Z,93496.91
2022-08-17T11:13:01.256Z,93515.09
2022-08-17T11:14:25.461Z,93473.25
2022-08-17T11:15:42.608Z,93501.84
2022-08-17T11:17:04.758Z,93508.66
2022-08-17T11:18:20.863Z,93511.16
2022-08-17T11:19:52.337Z,93514.91
2022-08-17T11:21:17.875Z,93516.06
2022-08-17T11:22:58.149Z,93526.19
2022-08-17T11:24:18.910Z,93515.06
2022-08-17T11:25:33.718Z,93518.25
2022-08-17T11:26:38.541Z,93524.16
2022-08-17T11:27:40.585Z,93528.38
2022-08-17T11:28:52.443Z,93529.38
2022-08-17T11:30:02.274Z,93522.66
2022-08-17T11:31:08.554Z,93532.31
2022-08-17T11:32:27.741Z,93507.38
2022-08-17T11:34:02.566Z,93520.66
2022-08-17T11:35:21.181Z,93528.16
2022-08-17T11:36:35.077Z,93536.97
2022-08-17T11:37:46.407Z,93529.31
2022-08-17T11:38:53.249Z,93526.56
2022-08-17T11:40:25.288Z,93532.00
2022-08-17T11:41:36.480Z,93530.19
2022-08-17T11:42:55.548Z,93527.31
2022-08-17T11:44:09.722Z,93533.88
2022-08-17T11:45:32.450Z,93533.53
2022-08-17T11:46:51.886Z,93530.88
2022-08-17T11:48:26.042Z,93541.81
2022-08-17T11:49:31.771Z,93542.59
2022-08-17T11:50:46.210Z,93536.78
2022-08-17T11:52:10.296Z,93547.53
2022-08-17T11:54:32.849Z,93553.72
2022-08-17T11:56:04.157Z,93544.84
2022-08-17T11:57:39.136Z,93540.38
2022-08-17T11:58:42.382Z,93543.44
2022-08-17T11:59:59.028Z,93541.56
2022-08-17T12:01:03.264Z,93529.84
2022-08-17T12:02:36.224Z,93543.69
2022-08-17T12:03:55.620Z,93545.78
2022-08-17T12:05:09.641Z,93552.09
2022-08-17T12:06:30.742Z,93553.34
2022-08-17T12:07:34.216Z,93561.16
2022-08-17T12:08:40.880Z,93567.72
2022-08-17T12:09:45.856Z,93557.34
2022-08-17T12:10:59.424Z,93575.59
2022-08-17T12:12:12.841Z,93570.03
2022-08-17T12:13:17.762Z,93568.53
2022-08-17T12:14:35.685Z,93562.38
2022-08-17T12:15:48.761Z,93574.16
2022-08-17T12:17:05.722Z,93557.34
2022-08-17T12:18:07.412Z,93569.22
2022-08-17T12:19:17.987Z,93561.66
2022-08-17T12:20:24.147Z,93571.25
2022-08-17T12:21:39.721Z,93574.66
2022-08-17T12:22:49.586Z,93575.06
2022-08-17T12:23:57.315Z,93570.94
2022-08-17T12:25:08.910Z,93577.22
2022-08-17T12:26:16.995Z,93563.59
2022-08-17T12:27:48.916Z,93563.09
2022-08-17T12:28:49.973Z,93558.09
2022-08-17T12:29:53.598Z,93550.53
2022-08-17T12:30:58.141Z,93545.75
2022-08-17T12:32:01.214Z,93560.56
2022-08-17T12:33:02.777Z,93552.41
2022-08-17T12:34:04.979Z,93535.31
2022-08-17T12:35:26.054Z,93546.03
2022-08-17T12:36:28.819Z,93549.94
2022-08-17T12:37:32.951Z,93549.63
2022-08-17T12:38:36.801Z,93547.09
2022-08-17T12:39:40.163Z,93544.50
2022-08-17T12:40:53.786Z,93542.50
2022-08-17T12:42:02.623Z,93548.91
2022-08-17T12:43:07.773Z,93528.06
2022-08-17T12:44:15.529Z,93524.25
2022-08-17T12:45:23.096Z,93532.38
2022-08-17T12:46:24.562Z,93534.19
2022-08-17T12:47:29.515Z,93536.75
2022-08-17T12:48:31.090Z,93513.28
2022-08-17T12:49:35.580Z,93523.97
2022-08-17T12:50:39.885Z,93508.25
2022-08-17T12:51:45.712Z,93517.13
2022-08-17T12:52:48.420Z,93508.13
2022-08-17T12:53:55.079Z,93511.16
2022-08-17T12:54:59.852Z,93507.38
2022-08-17T12:56:06.765Z,93503.03
2022-08-17T12:57:13.421Z,93512.06
2022-08-17T12:58:19.232Z,93498.81
2022-08-17T12:59:29.745Z,93507.88
2022-08-17T13:00:33.013Z,93510.56
2022-08-17T13:01:34.864Z,93503.00
2022-08-17T13:02:45.139Z,93507.31
2022-08-17T13:03:50.260Z,93509.28
2022-08-17T13:04:51.876Z,93510.66
2022-08-17T13:05:58.703Z,93497.25
2022-08-17T13:07:00.461Z,93492.94
2022-08-17T13:08:13.875Z,93508.00
2022-08-17T13:09:20.819Z,93514.19
2022-08-17T13:10:31.672Z,93505.75
2022-08-17T13:11:34.250Z,93506.44
2022-08-17T13:12:36.106Z,93503.06
2022-08-17T13:13:40.235Z,93511.44
2022-08-17T13:14:45.214Z,93498.47
2022-08-17T13:15:53.055Z,93502.25
2022-08-17T13:17:00.139Z,93503.75
2022-08-17T13:18:06.725Z,93502.22
2022-08-17T13:19:13.079Z,93502.88
2022-08-17T13:20:15.155Z,93504.50
2022-08-17T13:21:26.362Z,93489.06
2022-08-17T13:22:28.583Z,93510.34